createdAt,value
2023-06-19T00:01:12.783Z,10.73
2023-06-19T00:03:40.187Z,6.80
2023-06-19T00:06:08.164Z,4.78
2023-06-19T00:08:37.144Z,5.15
2023-06-19T00:11:04.559Z,5.25
2023-06-19T00:13:34.341Z,8.10
2023-06-19T00:16:02.150Z,5.60
2023-06-19T00:20:58.065Z,3.83
2023-06-19T00:23:25.454Z,6.22
2023-06-19T00:25:52.876Z,7.22
2023-06-19T00:28:21.363Z,4.85
2023-06-19T00:30:49.094Z,7.95
2023-06-19T00:33:16.448Z,9.82
2023-06-19T00:35:44.314Z,10.02
2023-06-19T00:38:11.813Z,8.07
2023-06-19T00:40:39.667Z,9.05
2023-06-19T00:43:07.634Z,10.88
2023-06-19T00:45:35.283Z,13.20
2023-06-19T00:48:03.104Z,6.53
2023-06-19T00:50:31.573Z,7.78
2023-06-19T00:53:00.914Z,9.38
2023-06-19T00:55:33.675Z,10.93
2023-06-19T00:58:02.277Z,13.98
2023-06-19T01:00:29.958Z,6.57
2023-06-19T01:02:59.515Z,8.95
2023-06-19T01:05:29.260Z,9.48
2023-06-19T01:08:16.064Z,11.68
2023-06-19T01:10:49.063Z,10.15
2023-06-19T01:14:01.424Z,9.95
2023-06-19T01:16:30.367Z,11.10
2023-06-19T01:18:57.817Z,7.38
2023-06-19T01:21:25.233Z,10.95
2023-06-19T01:23:52.672Z,9.32
2023-06-19T01:26:27.718Z,9.13
2023-06-19T01:28:56.275Z,10.85
2023-06-19T01:31:30.071Z,9.38
2023-06-19T01:33:57.811Z,10.27
2023-06-19T01:38:56.841Z,10.57
2023-06-19T01:41:26.059Z,9.85
2023-06-19T01:43:54.507Z,9.68
2023-06-19T01:46:21.989Z,5.22
2023-06-19T01:48:49.422Z,3.58
2023-06-19T01:51:17.782Z,5.63
2023-06-19T01:53:45.105Z,4.18
2023-06-19T01:56:12.990Z,3.75
2023-06-19T01:58:40.320Z,4.85
2023-06-19T02:01:07.690Z,5.05
2023-06-19T02:03:35.129Z,7.75
2023-06-19T02:06:02.685Z,7.15
2023-06-19T02:08:30.037Z,4.13
2023-06-19T02:10:57.336Z,8.80
2023-06-19T02:13:24.841Z,4.43
2023-06-19T02:15:52.768Z,4.18
2023-06-19T02:18:20.330Z,8.82
2023-06-19T02:20:47.855Z,8.25
2023-06-19T02:23:16.686Z,3.40
2023-06-19T02:25:44.060Z,3.95
2023-06-19T02:28:11.443Z,5.20
2023-06-19T02:30:38.866Z,5.60
2023-06-19T02:33:06.380Z,4.10
2023-06-19T02:35:34.087Z,6.95
2023-06-19T02:38:01.507Z,5.32
2023-06-19T02:40:28.927Z,7.68
2023-06-19T02:42:56.369Z,5.57
2023-06-19T02:45:23.837Z,7.70
2023-06-19T02:47:53.424Z,7.90
2023-06-19T02:50:21.254Z,7.10
2023-06-19T02:52:48.912Z,5.32
2023-06-19T02:55:16.307Z,10.60
2023-06-19T02:57:43.742Z,8.07
2023-06-19T03:00:13.411Z,6.25
2023-06-19T03:02:44.560Z,6.28
2023-06-19T03:05:16.318Z,9.40
2023-06-19T03:07:44.029Z,7.03
2023-06-19T03:10:11.651Z,3.72
2023-06-19T03:15:06.865Z,9.10
2023-06-19T03:17:37.362Z,4.75
2023-06-19T03:20:10.722Z,6.70
2023-06-19T03:22:38.245Z,5.53
2023-06-19T03:25:05.936Z,6.43
2023-06-19T03:27:33.562Z,7.18
2023-06-19T03:30:02.423Z,6.50
2023-06-19T03:32:38.306Z,6.95
2023-06-19T03:35:09.408Z,8.05
2023-06-19T03:37:41.730Z,8.43
2023-06-19T03:42:44.551Z,5.95
2023-06-19T03:45:13.683Z,5.20
2023-06-19T03:47:41.176Z,6.20
2023-06-19T03:50:20.653Z,5.97
2023-06-19T03:52:58.377Z,8.63
2023-06-19T03:55:26.040Z,4.43
2023-06-19T04:00:24.071Z,6.88
2023-06-19T04:02:52.794Z,4.50
2023-06-19T04:07:48.689Z,4.10
2023-06-19T04:10:16.701Z,7.57
2023-06-19T04:12:46.696Z,10.30
2023-06-19T04:15:14.124Z,5.57
2023-06-19T04:17:41.601Z,8.27
2023-06-19T04:20:20.707Z,5.47
2023-06-19T04:22:48.990Z,5.80
2023-06-19T04:25:16.317Z,3.65
2023-06-19T04:27:46.083Z,6.05
2023-06-19T04:30:13.886Z,3.13
2023-06-19T04:32:42.312Z,3.92
2023-06-19T04:35:10.862Z,4.63
2023-06-19T04:37:38.678Z,7.15
2023-06-19T04:40:08.494Z,4.07
2023-06-19T04:42:35.971Z,4.10
2023-06-19T04:47:43.555Z,6.68
2023-06-19T04:50:18.970Z,3.90
2023-06-19T04:55:16.153Z,4.40
2023-06-19T05:00:14.076Z,5.53
2023-06-19T05:02:45.364Z,4.75
2023-06-19T05:05:12.914Z,4.47
2023-06-19T05:07:40.988Z,5.28
2023-06-19T05:10:09.188Z,5.72
2023-06-19T05:12:36.977Z,5.90
2023-06-19T05:15:05.105Z,5.70
2023-06-19T05:17:33.918Z,4.15
2023-06-19T05:20:02.712Z,5.85
2023-06-19T05:22:33.455Z,5.47
2023-06-19T05:25:02.664Z,7.45
2023-06-19T05:27:31.931Z,4.43
2023-06-19T05:30:00.741Z,3.25
2023-06-19T05:32:29.225Z,8.18
2023-06-19T05:34:56.666Z,9.82
2023-06-19T05:39:53.135Z,8.35
2023-06-19T05:42:20.592Z,3.47
2023-06-19T05:44:48.172Z,7.07
2023-06-19T05:47:18.382Z,5.07
2023-06-19T05:49:45.802Z,12.27
2023-06-19T05:52:13.619Z,7.38
2023-06-19T05:54:41.259Z,12.68
2023-06-19T05:57:08.912Z,6.72
2023-06-19T06:02:05.118Z,3.15
2023-06-19T06:04:34.081Z,3.00
2023-06-19T06:07:02.118Z,6.78
2023-06-19T06:09:29.669Z,6.70
2023-06-19T06:11:57.204Z,4.15
2023-06-19T06:16:52.096Z,6.78
2023-06-19T06:19:22.597Z,7.60
2023-06-19T06:21:51.028Z,3.58
2023-06-19T06:24:19.825Z,4.90
2023-06-19T06:26:48.339Z,7.03
2023-06-19T06:29:16.725Z,2.90
2023-06-19T06:31:49.094Z,3.42
2023-06-19T06:34:16.408Z,7.32
2023-06-19T06:36:52.848Z,2.92
2023-06-19T06:39:29.656Z,6.60
2023-06-19T06:41:57.529Z,3.33
2023-06-19T06:44:25.000Z,4.95
2023-06-19T06:46:52.952Z,4.97
2023-06-19T06:49:20.384Z,4.70
2023-06-19T06:54:15.535Z,4.03
2023-06-19T06:56:43.449Z,7.15
2023-06-19T06:59:10.834Z,6.35
2023-06-19T07:01:38.871Z,5.05
2023-06-19T07:04:06.342Z,5.25
2023-06-19T07:06:33.699Z,7.03
2023-06-19T07:11:29.606Z,6.32
2023-06-19T07:13:57.099Z,9.88
2023-06-19T07:16:24.668Z,6.57
2023-06-19T07:18:53.367Z,3.78
2023-06-19T07:21:21.549Z,4.47
2023-06-19T07:23:49.583Z,12.82
2023-06-19T07:26:17.236Z,10.98
2023-06-19T07:28:46.457Z,5.93
2023-06-19T07:31:14.964Z,5.78
2023-06-19T07:33:42.728Z,5.60
2023-06-19T07:36:15.339Z,7.95
2023-06-19T07:38:47.496Z,3.35
2023-06-19T07:41:14.957Z,11.27
2023-06-19T07:43:48.216Z,6.55
2023-06-19T07:46:17.164Z,3.85
2023-06-19T07:48:44.789Z,5.40
2023-06-19T07:51:12.539Z,5.82
2023-06-19T07:53:41.523Z,3.72
2023-06-19T07:56:09.934Z,9.35
2023-06-19T07:58:38.491Z,3.20
2023-06-19T08:01:06.381Z,5.13
2023-06-19T08:03:35.086Z,6.43
2023-06-19T08:06:03.695Z,4.93
2023-06-19T08:08:31.403Z,4.57
2023-06-19T08:13:26.699Z,5.65
2023-06-19T08:15:54.478Z,4.10
2023-06-19T08:18:22.306Z,6.78
2023-06-19T08:20:50.071Z,7.47
2023-06-19T08:23:17.515Z,8.38
2023-06-19T08:25:46.319Z,7.53
2023-06-19T08:28:14.829Z,7.45
2023-06-19T08:30:44.039Z,6.25
2023-06-19T08:33:12.004Z,3.70
2023-06-19T08:38:08.596Z,2.72
2023-06-19T08:40:36.320Z,12.93
2023-06-19T08:43:04.492Z,7.82
2023-06-19T08:45:31.902Z,6.57
2023-06-19T08:48:00.723Z,6.30
2023-06-19T08:50:28.456Z,4.55
2023-06-19T08:52:57.125Z,5.85
2023-06-19T08:55:29.273Z,4.82
2023-06-19T08:57:57.268Z,5.50
2023-06-19T09:00:30.623Z,5.55
2023-06-19T09:03:14.029Z,10.18
2023-06-19T09:05:51.652Z,6.97
2023-06-19T09:08:21.267Z,5.18
2023-06-19T09:11:02.194Z,4.00
2023-06-19T09:13:30.933Z,6.72
2023-06-19T09:16:03.488Z,6.93
2023-06-19T09:18:48.597Z,2.80
2023-06-19T09:21:25.274Z,5.80
2023-06-19T09:23:56.136Z,6.75
2023-06-19T09:26:31.824Z,14.20
2023-06-19T09:28:59.534Z,8.20
2023-06-19T09:31:35.258Z,5.75
2023-06-19T09:34:03.619Z,6.63
2023-06-19T09:36:33.835Z,4.68
2023-06-19T09:39:03.372Z,7.10
2023-06-19T09:41:32.141Z,7.47
2023-06-19T09:44:01.555Z,5.95
2023-06-19T09:46:34.980Z,7.40
2023-06-19T09:49:05.085Z,4.00
2023-06-19T09:51:36.949Z,3.83
2023-06-19T09:54:06.158Z,5.20
2023-06-19T09:56:34.332Z,5.07
2023-06-19T09:59:02.459Z,6.70
2023-06-19T10:01:33.500Z,6.90
2023-06-19T10:04:12.832Z,5.97
2023-06-19T10:06:48.357Z,11.05
2023-06-19T10:09:19.762Z,10.70
2023-06-19T10:11:54.151Z,7.03
2023-06-19T10:14:22.883Z,7.25
2023-06-19T10:16:50.595Z,7.10
2023-06-19T10:19:22.704Z,5.20
2023-06-19T10:21:56.682Z,5.18
2023-06-19T10:24:26.039Z,5.93
2023-06-19T10:27:12.292Z,4.30
2023-06-19T10:29:41.771Z,6.72
2023-06-19T10:32:14.948Z,3.63
2023-06-19T10:37:15.360Z,5.13
2023-06-19T10:42:11.569Z,7.47
2023-06-19T10:44:39.715Z,7.78
2023-06-19T10:47:08.889Z,4.80
2023-06-19T10:49:37.302Z,9.32
2023-06-19T10:52:05.211Z,4.88
2023-06-19T10:54:33.741Z,3.78
2023-06-19T10:57:06.206Z,2.65
2023-06-19T10:59:36.217Z,5.82
2023-06-19T11:02:03.949Z,4.82
2023-06-19T11:04:32.635Z,4.68
2023-06-19T11:07:06.705Z,4.25
2023-06-19T11:09:34.247Z,5.03
2023-06-19T11:14:31.745Z,7.43
2023-06-19T11:17:01.713Z,6.90
2023-06-19T11:19:32.113Z,8.00
2023-06-19T11:21:59.710Z,7.05
2023-06-19T11:24:27.094Z,4.45
2023-06-19T11:26:57.277Z,3.75
2023-06-19T11:29:27.199Z,5.15
2023-06-19T11:32:07.037Z,3.45
2023-06-19T11:34:38.343Z,5.93
2023-06-19T11:37:26.889Z,5.95
2023-06-19T11:39:55.464Z,4.68
2023-06-19T11:42:22.952Z,4.72
2023-06-19T11:47:36.309Z,3.88
2023-06-19T11:50:06.488Z,5.68
2023-06-19T11:52:35.262Z,6.43
2023-06-19T11:55:06.448Z,7.75
2023-06-19T11:57:34.745Z,5.25
2023-06-19T12:00:02.944Z,2.90
2023-06-19T12:02:40.787Z,3.17
2023-06-19T12:05:11.758Z,3.65
2023-06-19T12:07:40.592Z,4.28
2023-06-19T12:10:12.894Z,4.15
2023-06-19T12:12:40.301Z,5.10
2023-06-19T12:17:37.424Z,6.63
2023-06-19T12:20:10.667Z,5.85
2023-06-19T12:22:39.782Z,6.10
2023-06-19T12:25:07.803Z,6.03
2023-06-19T12:27:37.852Z,5.18
2023-06-19T12:30:06.441Z,6.88
2023-06-19T12:32:36.232Z,4.55
2023-06-19T12:35:04.550Z,4.68
2023-06-19T12:37:34.965Z,5.25
2023-06-19T12:40:02.660Z,3.42
2023-06-19T12:42:35.442Z,5.70
2023-06-19T12:45:03.088Z,5.50
2023-06-19T12:47:34.462Z,6.22
2023-06-19T12:50:03.343Z,5.10
2023-06-19T12:52:32.928Z,5.53
2023-06-19T12:55:03.241Z,6.28
2023-06-19T12:57:35.656Z,5.55
2023-06-19T13:00:03.517Z,3.25
2023-06-19T13:02:35.484Z,8.45
2023-06-19T13:05:03.264Z,6.47
2023-06-19T13:07:34.654Z,3.72
2023-06-19T13:12:31.260Z,6.57
2023-06-19T13:14:58.694Z,3.75
2023-06-19T13:19:53.410Z,7.47
2023-06-19T13:22:22.911Z,5.47
2023-06-19T13:24:52.297Z,3.65
2023-06-19T13:27:20.296Z,11.82
2023-06-19T13:29:48.789Z,3.80
2023-06-19T13:32:17.917Z,4.05
2023-06-19T13:34:45.411Z,5.20
2023-06-19T13:37:12.786Z,4.47
2023-06-19T13:39:41.070Z,5.28
2023-06-19T13:42:08.834Z,4.80
2023-06-19T13:44:36.759Z,5.00
2023-06-19T13:47:06.124Z,6.03
2023-06-19T13:49:33.563Z,3.78
2023-06-19T13:52:01.492Z,7.05
2023-06-19T13:54:29.314Z,8.68
2023-06-19T13:56:56.700Z,9.75
2023-06-19T13:59:24.208Z,6.72
2023-06-19T14:04:18.759Z,5.80
2023-06-19T14:09:14.279Z,6.05
2023-06-19T14:11:41.668Z,6.20
2023-06-19T14:16:38.693Z,4.45
2023-06-19T14:19:07.580Z,3.85
2023-06-19T14:21:36.324Z,4.80
2023-06-19T14:24:04.568Z,3.58
2023-06-19T14:26:31.959Z,6.82
2023-06-19T14:31:27.856Z,3.22
2023-06-19T14:33:55.412Z,3.92
2023-06-19T14:36:23.018Z,4.60
2023-06-19T14:38:50.744Z,5.80
2023-06-19T14:41:18.168Z,5.80
2023-06-19T14:46:18.044Z,4.20
2023-06-19T14:48:50.619Z,4.70
2023-06-19T14:53:45.275Z,4.43
2023-06-19T14:56:13.049Z,4.80
2023-06-19T14:58:40.554Z,6.13
2023-06-19T15:01:08.051Z,7.35
2023-06-19T15:06:05.029Z,6.60
2023-06-19T15:08:32.848Z,7.57
2023-06-19T15:11:00.619Z,12.43
2023-06-19T15:13:28.083Z,8.45
2023-06-19T15:15:55.559Z,4.35
2023-06-19T15:20:50.578Z,3.92
2023-06-19T15:23:19.252Z,8.85
2023-06-19T15:25:46.748Z,5.25
2023-06-19T15:30:41.368Z,8.25
2023-06-19T15:35:36.165Z,4.68
2023-06-19T15:38:03.550Z,4.65
2023-06-19T15:42:58.167Z,11.63
2023-06-19T15:47:53.801Z,7.60
2023-06-19T15:50:21.337Z,8.32
2023-06-19T15:55:16.027Z,8.48
2023-06-19T16:00:12.499Z,8.70
2023-06-19T16:02:48.802Z,9.68
2023-06-19T16:05:19.148Z,4.53
2023-06-19T16:07:46.537Z,5.43
2023-06-19T16:10:15.904Z,10.05
2023-06-19T16:12:43.384Z,6.03
2023-06-19T16:17:41.893Z,6.15
2023-06-19T16:20:10.161Z,6.65
2023-06-19T16:22:37.664Z,14.07
2023-06-19T16:27:32.704Z,5.80
2023-06-19T16:32:27.497Z,12.40
2023-06-19T16:37:22.020Z,15.38
2023-06-19T16:39:49.333Z,15.30
2023-06-19T16:42:16.951Z,19.02
2023-06-19T16:44:44.316Z,16.98
2023-06-19T16:47:11.746Z,27.33
2023-06-19T16:52:07.066Z,8.82
2023-06-19T16:54:34.520Z,12.40
2023-06-19T16:59:29.315Z,11.88
2023-06-19T17:01:56.782Z,9.95
2023-06-19T17:04:24.143Z,8.90
2023-06-19T17:06:51.446Z,10.50
2023-06-19T17:09:18.722Z,13.13
2023-06-19T17:11:46.166Z,9.73
2023-06-19T17:14:13.620Z,8.88
2023-06-19T17:19:11.056Z,10.95
2023-06-19T17:21:38.459Z,11.95
2023-06-19T17:24:06.112Z,13.63
2023-06-19T17:26:33.669Z,19.90
2023-06-19T17:31:29.831Z,19.35
2023-06-19T17:33:57.243Z,24.45
2023-06-19T17:36:24.616Z,20.52
2023-06-19T17:38:52.043Z,15.38
2023-06-19T17:41:19.402Z,17.50
2023-06-19T17:43:46.852Z,15.52
2023-06-19T17:46:14.369Z,16.23
2023-06-19T17:51:10.299Z,12.65
2023-06-19T17:53:37.666Z,12.77
2023-06-19T17:56:06.147Z,14.48
2023-06-19T17:58:33.691Z,15.15
2023-06-19T18:01:01.486Z,12.02
2023-06-19T18:03:29.440Z,13.52
2023-06-19T18:05:56.982Z,8.55
2023-06-19T18:08:24.391Z,10.43
2023-06-19T18:10:51.905Z,16.05
2023-06-19T18:13:19.311Z,15.48
2023-06-19T18:15:55.600Z,13.18
2023-06-19T18:18:30.196Z,13.98
2023-06-19T18:20:57.533Z,10.27
2023-06-19T18:23:25.286Z,12.32
2023-06-19T18:25:52.849Z,9.48
2023-06-19T18:30:47.333Z,5.65
2023-06-19T18:33:14.684Z,9.65
2023-06-19T18:35:41.950Z,8.70
2023-06-19T18:38:09.414Z,9.95
2023-06-19T18:40:36.688Z,7.50
2023-06-19T18:43:03.943Z,6.93
2023-06-19T18:45:31.946Z,7.90
2023-06-19T18:47:59.415Z,7.22
2023-06-19T18:50:27.230Z,9.75
2023-06-19T18:52:55.947Z,8.23
2023-06-19T18:55:23.521Z,5.45
2023-06-19T18:57:52.163Z,6.75
2023-06-19T19:00:19.860Z,7.90
2023-06-19T19:02:47.624Z,7.95
2023-06-19T19:05:15.309Z,9.55
2023-06-19T19:10:11.050Z,8.02
2023-06-19T19:12:38.676Z,9.38
2023-06-19T19:15:07.312Z,8.02
2023-06-19T19:17:34.869Z,14.60
2023-06-19T19:22:35.788Z,6.78
2023-06-19T19:25:03.336Z,6.72
2023-06-19T19:27:34.091Z,8.63
2023-06-19T19:30:02.643Z,11.68
2023-06-19T19:32:32.821Z,6.93
2023-06-19T19:37:30.319Z,12.40
2023-06-19T19:39:58.155Z,8.75
2023-06-19T19:42:26.552Z,8.65
2023-06-19T19:44:54.513Z,8.73
2023-06-19T19:47:22.257Z,7.57
2023-06-19T19:49:49.618Z,6.43
2023-06-19T19:52:17.043Z,7.53
2023-06-19T19:54:44.471Z,8.07
2023-06-19T19:57:11.909Z,6.82
2023-06-19T19:59:39.234Z,7.95
2023-06-19T20:02:11.491Z,6.88
2023-06-19T20:04:39.719Z,9.93
2023-06-19T20:07:07.714Z,5.75
2023-06-19T20:09:35.127Z,10.77
2023-06-19T20:12:20.076Z,6.95
2023-06-19T20:14:49.328Z,5.88
2023-06-19T20:17:17.039Z,8.10
2023-06-19T20:19:44.608Z,8.45
2023-06-19T20:22:12.102Z,7.68
2023-06-19T20:24:39.614Z,6.50
2023-06-19T20:27:08.049Z,10.40
2023-06-19T20:29:35.453Z,8.55
2023-06-19T20:32:02.929Z,9.75
2023-06-19T20:34:30.578Z,8.98
2023-06-19T20:36:58.152Z,9.38
2023-06-19T20:39:26.291Z,9.60
2023-06-19T20:41:53.695Z,10.50
2023-06-19T20:44:21.081Z,7.28
2023-06-19T20:46:49.973Z,7.32
2023-06-19T20:49:17.479Z,10.75
2023-06-19T20:51:44.867Z,10.48
2023-06-19T20:54:12.384Z,9.32
2023-06-19T20:56:39.795Z,8.02
2023-06-19T20:59:07.220Z,11.60
2023-06-19T21:01:34.678Z,17.63
2023-06-19T21:04:03.000Z,12.18
2023-06-19T21:06:31.121Z,12.05
2023-06-19T21:09:00.690Z,10.02
2023-06-19T21:11:28.338Z,10.05
2023-06-19T21:13:55.628Z,10.27
2023-06-19T21:16:23.026Z,9.25
2023-06-19T21:18:50.477Z,7.63
2023-06-19T21:21:17.914Z,9.55
2023-06-19T21:23:45.331Z,10.15
2023-06-19T21:26:14.541Z,9.95
2023-06-19T21:28:41.959Z,12.25
2023-06-19T21:31:09.431Z,8.18
2023-06-19T21:33:39.284Z,7.78
2023-06-19T21:36:06.921Z,8.90
2023-06-19T21:38:35.535Z,7.32
2023-06-19T21:41:03.636Z,8.93
2023-06-19T21:43:31.102Z,6.82
2023-06-19T21:45:59.837Z,10.85
2023-06-19T21:48:27.648Z,8.30
2023-06-19T21:53:22.898Z,9.43
2023-06-19T21:58:17.521Z,6.88
2023-06-19T22:00:44.898Z,7.53
2023-06-19T22:03:12.410Z,8.57
2023-06-19T22:05:40.094Z,6.65
2023-06-19T22:08:07.754Z,11.57
2023-06-19T22:10:35.108Z,7.65
2023-06-19T22:13:02.589Z,7.82
2023-06-19T22:15:29.982Z,5.95
2023-06-19T22:17:57.533Z,5.57
2023-06-19T22:20:25.204Z,7.50
2023-06-19T22:22:52.880Z,5.00
2023-06-19T22:25:20.223Z,7.50
2023-06-19T22:27:49.337Z,7.05
2023-06-19T22:30:17.170Z,5.95
2023-06-19T22:32:44.662Z,9.52
2023-06-19T22:35:12.148Z,9.93
2023-06-19T22:37:40.324Z,7.25
2023-06-19T22:40:11.392Z,9.55
2023-06-19T22:42:39.483Z,6.25
2023-06-19T22:45:08.038Z,6.72
2023-06-19T22:47:39.944Z,8.38
2023-06-19T22:50:09.354Z,9.35
2023-06-19T22:52:37.140Z,5.07
2023-06-19T22:55:05.514Z,6.28
2023-06-19T22:57:36.597Z,4.85
2023-06-19T23:00:13.544Z,7.43
2023-06-19T23:02:43.497Z,7.82
2023-06-19T23:05:12.791Z,5.78
2023-06-19T23:07:42.385Z,5.10
2023-06-19T23:10:10.098Z,7.15
2023-06-19T23:12:38.535Z,11.07
2023-06-19T23:15:08.379Z,8.20
2023-06-19T23:17:37.796Z,5.18
2023-06-19T23:20:11.076Z,6.88
2023-06-19T23:22:39.165Z,6.78
2023-06-19T23:25:06.803Z,6.57
2023-06-19T23:27:37.050Z,7.60
2023-06-19T23:30:05.617Z,5.03
2023-06-19T23:32:33.670Z,7.47
2023-06-19T23:35:01.276Z,4.95
2023-06-19T23:37:31.075Z,6.28
2023-06-19T23:39:58.531Z,4.28
2023-06-19T23:42:26.002Z,4.97
2023-06-19T23:44:53.468Z,6.97
2023-06-19T23:47:21.122Z,6.18
2023-06-19T23:49:49.387Z,5.30
2023-06-19T23:52:21.704Z,4.18
2023-06-19T23:54:54.380Z,4.78
2023-06-19T23:57:21.806Z,7.30
2023-06-19T23:59:49.234Z,5.53
